Hlavní strana
METAR-TAF:

METAR-TAF

Letiště :

Ancona, Itálie

zeměpisná šířka: 43-37N, zeměpisná délka: 013-22E, výška: 12 m

Aktuální stav počasí

Zpráva byla vytvořena před 22 minutami, v 10:50 UTC
Severoseverozápadní vítr 10 kt
Teplota 24°C
Vlhkost vzduchu 65%
Tlak 1015 hPa
Viditelnost 10 km a více
Skoro jasno ve výšce 3000 ft, Vertikální cumulus.

METAR: LIPY 251050Z 34010KT 9999 FEW030TCU 24/17 Q1015

Čas: 13:12 (11:12 UTC)

Předpověď počasí

Zpráva byla vytvořena před 6 hodinami a 12 minutami, v 05:00 UTC
Předpověď platná od 25 v 06 UTC do 26 v 06 UTC
vítr z různých směrů 6 kt
Viditelnost 10 km a více
Žádná oblačnost pod 1500 m, nevyskytují se cumulonimby.

TAF: LIPY 250500Z 2506/2606 VRB06KT CAVOK

Stav a předpovědi počasí z více než 4 000 letišť (zprávy METAR a TAF).

Červené a žluté tečky na mapě představují dostupné meteorologické stanice.

Když kurzor umístíte na tečku, zobrazí se název stanice.

Pak kliknutím zobrazíte stav a předpověď počasí.

Chcete-li změnit mapu, kliknutím na zelené tlačítko se znaménkem +mapu přiblížíte, kliknutím na zelené tlačítko se znaménkem – mapu oddálíte a kliknutím na zelené šipky přejdete na sousední mapy.


METAR-TAF: